createdAt,value
2024-01-11T00:01:47.313Z,26.33
2024-01-11T00:04:15.284Z,25.13
2024-01-11T00:06:45.076Z,21.70
2024-01-11T00:09:13.561Z,25.30
2024-01-11T00:11:41.705Z,24.17
2024-01-11T00:14:09.788Z,20.93
2024-01-11T00:16:37.627Z,25.77
2024-01-11T00:19:06.086Z,25.90
2024-01-11T00:21:33.997Z,24.67
2024-01-11T00:24:03.211Z,24.17
2024-01-11T00:26:31.071Z,22.43
2024-01-11T00:28:59.280Z,21.07
2024-01-11T00:31:27.077Z,20.10
2024-01-11T00:33:54.982Z,24.90
2024-01-11T00:36:22.969Z,23.33
2024-01-11T00:38:51.567Z,19.17
2024-01-11T00:41:20.768Z,19.67
2024-01-11T00:43:48.842Z,18.53
2024-01-11T00:46:16.672Z,18.37
2024-01-11T00:48:44.679Z,19.90
2024-01-11T00:51:12.730Z,19.77
2024-01-11T00:53:40.980Z,19.90
2024-01-11T00:56:17.599Z,19.37
2024-01-11T00:58:46.948Z,18.20
2024-01-11T01:01:15.195Z,17.80
2024-01-11T01:03:43.183Z,16.87
2024-01-11T01:06:11.398Z,19.60
2024-01-11T01:08:39.411Z,18.33
2024-01-11T01:11:07.843Z,20.03
2024-01-11T01:13:35.700Z,15.43
2024-01-11T01:16:05.341Z,18.73
2024-01-11T01:18:33.342Z,16.13
2024-01-11T01:21:01.229Z,14.23
2024-01-11T01:23:29.488Z,16.87
2024-01-11T01:25:57.855Z,16.87
2024-01-11T01:28:25.698Z,19.97
2024-01-11T01:30:54.507Z,16.63
2024-01-11T01:33:24.114Z,16.80
2024-01-11T01:35:52.017Z,15.37
2024-01-11T01:38:20.004Z,16.20
2024-01-11T01:40:47.847Z,18.40
2024-01-11T01:43:15.812Z,18.57
2024-01-11T01:45:43.657Z,18.17
2024-01-11T01:48:11.830Z,15.90
2024-01-11T01:50:41.484Z,14.30
2024-01-11T01:53:09.685Z,17.97
2024-01-11T01:55:37.645Z,16.10
2024-01-11T01:58:06.486Z,16.33
2024-01-11T02:00:34.361Z,17.43
2024-01-11T02:03:02.850Z,18.30
2024-01-11T02:05:30.957Z,14.37
2024-01-11T02:08:03.221Z,18.13
2024-01-11T02:10:34.983Z,14.40
2024-01-11T02:13:02.828Z,14.60
2024-01-11T02:15:30.673Z,17.83
2024-01-11T02:17:58.679Z,16.80
2024-01-11T02:20:26.625Z,17.30
2024-01-11T02:23:00.268Z,15.00
2024-01-11T02:25:29.458Z,20.73
2024-01-11T02:27:57.255Z,16.97
2024-01-11T02:30:25.314Z,18.47
2024-01-11T02:32:54.903Z,22.70
2024-01-11T02:35:23.749Z,18.50
2024-01-11T02:37:52.482Z,18.23
2024-01-11T02:40:21.501Z,19.83
2024-01-11T02:42:50.917Z,16.30
2024-01-11T02:45:20.054Z,20.93
2024-01-11T02:47:48.000Z,18.80
2024-01-11T02:50:16.280Z,21.70
2024-01-11T02:52:44.516Z,19.83
2024-01-11T02:55:12.361Z,20.33
2024-01-11T02:57:40.199Z,19.83
2024-01-11T03:00:10.336Z,17.70
2024-01-11T03:02:39.926Z,18.00
2024-01-11T03:05:08.357Z,18.93
2024-01-11T03:07:36.234Z,20.90
2024-01-11T03:10:04.134Z,21.00
2024-01-11T03:12:31.966Z,20.97
2024-01-11T03:14:59.793Z,23.97
2024-01-11T03:17:29.203Z,22.87
2024-01-11T03:19:57.183Z,20.23
2024-01-11T03:22:25.030Z,18.87
2024-01-11T03:24:52.877Z,23.23
2024-01-11T03:27:20.812Z,20.17
2024-01-11T03:29:48.691Z,15.63
2024-01-11T03:32:16.617Z,19.30
2024-01-11T03:34:45.993Z,16.50
2024-01-11T03:37:13.834Z,18.17
2024-01-11T03:39:41.664Z,18.47
2024-01-11T03:42:09.496Z,17.60
2024-01-11T03:44:38.969Z,18.87
2024-01-11T03:47:07.761Z,16.77
2024-01-11T03:49:35.688Z,19.30
2024-01-11T03:52:05.128Z,17.30
2024-01-11T03:54:33.038Z,17.20
2024-01-11T03:57:00.964Z,17.27
2024-01-11T03:59:28.858Z,19.87
2024-01-11T04:01:57.877Z,16.13
2024-01-11T04:04:26.085Z,17.43
2024-01-11T04:06:54.304Z,19.00
2024-01-11T04:09:23.507Z,17.63
2024-01-11T04:11:51.352Z,20.07
2024-01-11T04:14:19.265Z,21.70
2024-01-11T04:16:47.237Z,19.73
2024-01-11T04:19:16.310Z,19.03
2024-01-11T04:21:45.753Z,18.47
2024-01-11T04:24:13.801Z,18.43
2024-01-11T04:26:43.012Z,16.50
2024-01-11T04:29:10.878Z,18.90
2024-01-11T04:31:38.761Z,17.33
2024-01-11T04:34:07.133Z,21.30
2024-01-11T04:36:35.054Z,17.40
2024-01-11T04:39:03.308Z,17.13
2024-01-11T04:41:31.174Z,18.67
2024-01-11T04:44:00.451Z,16.47
2024-01-11T04:46:28.340Z,14.17
2024-01-11T04:48:56.237Z,18.37
2024-01-11T04:51:24.100Z,18.30
2024-01-11T04:53:51.983Z,16.33
2024-01-11T04:56:19.969Z,15.73
2024-01-11T04:58:48.546Z,14.70
2024-01-11T05:01:18.842Z,13.97
2024-01-11T05:03:48.540Z,17.40
2024-01-11T05:06:20.547Z,17.40
2024-01-11T05:08:49.079Z,15.03
2024-01-11T05:11:18.423Z,18.63
2024-01-11T05:13:48.786Z,14.83
2024-01-11T05:16:23.770Z,12.63
2024-01-11T05:18:52.182Z,13.77
2024-01-11T05:21:20.200Z,14.83
2024-01-11T05:23:48.073Z,11.87
2024-01-11T05:26:17.517Z,13.07
2024-01-11T05:28:45.471Z,12.63
2024-01-11T05:31:14.807Z,13.83
2024-01-11T05:33:44.632Z,15.20
2024-01-11T05:36:12.893Z,15.60
2024-01-11T05:38:42.051Z,13.53
2024-01-11T05:41:10.703Z,14.10
2024-01-11T05:43:40.202Z,16.40
2024-01-11T05:46:08.968Z,16.97
2024-01-11T05:48:37.344Z,16.30
2024-01-11T05:51:07.234Z,16.27
2024-01-11T05:53:37.231Z,17.83
2024-01-11T05:56:09.877Z,16.60
2024-01-11T05:58:39.468Z,20.77
2024-01-11T06:01:07.516Z,21.97
2024-01-11T06:03:36.084Z,21.20
2024-01-11T06:06:07.368Z,23.73
2024-01-11T06:08:35.505Z,23.30
2024-01-11T06:11:03.432Z,21.53
2024-01-11T06:13:31.293Z,20.33
2024-01-11T06:15:59.148Z,20.27
2024-01-11T06:18:27.191Z,18.23
2024-01-11T06:20:55.136Z,21.30
2024-01-11T06:23:26.319Z,18.67
2024-01-11T06:25:54.297Z,20.53
2024-01-11T06:28:22.197Z,22.30
2024-01-11T06:30:50.105Z,18.50
2024-01-11T06:33:18.401Z,17.60
2024-01-11T06:35:46.666Z,17.43
2024-01-11T06:38:14.934Z,16.40
2024-01-11T06:40:44.464Z,16.13
2024-01-11T06:43:12.700Z,14.87
2024-01-11T06:45:40.994Z,16.73
2024-01-11T06:48:09.125Z,18.90
2024-01-11T06:50:37.205Z,16.10
2024-01-11T06:53:05.850Z,16.23
2024-01-11T06:55:33.973Z,17.87
2024-01-11T06:58:03.414Z,17.90
2024-01-11T07:00:31.424Z,14.50
2024-01-11T07:02:59.442Z,15.93
2024-01-11T07:05:27.538Z,14.73
2024-01-11T07:07:55.471Z,14.80
2024-01-11T07:10:24.061Z,15.60
2024-01-11T07:12:51.981Z,13.20
2024-01-11T07:15:21.205Z,16.67
2024-01-11T07:17:49.159Z,14.27
2024-01-11T07:20:17.996Z,15.13
2024-01-11T07:22:45.983Z,15.70
2024-01-11T07:25:15.436Z,14.67
2024-01-11T07:27:43.325Z,14.33
2024-01-11T07:30:14.687Z,20.07
2024-01-11T07:32:44.138Z,18.77
2024-01-11T07:35:16.483Z,21.03
2024-01-11T07:37:46.982Z,13.03
2024-01-11T07:40:15.065Z,12.97
2024-01-11T07:42:43.158Z,16.13
2024-01-11T07:45:12.249Z,14.07
2024-01-11T07:47:40.806Z,16.63
2024-01-11T07:50:11.944Z,16.37
2024-01-11T07:52:42.623Z,15.87
2024-01-11T07:55:14.013Z,15.27
2024-01-11T07:57:43.047Z,12.93
2024-01-11T08:00:11.879Z,16.50
2024-01-11T08:02:42.794Z,18.93
2024-01-11T08:05:12.263Z,16.63
2024-01-11T08:07:40.168Z,15.93
2024-01-11T08:10:10.366Z,18.43
2024-01-11T08:12:38.791Z,16.23
2024-01-11T08:15:07.559Z,15.20
2024-01-11T08:17:36.321Z,15.70
2024-01-11T08:20:09.171Z,17.43
2024-01-11T08:22:39.052Z,16.80
2024-01-11T08:25:07.668Z,17.63
2024-01-11T08:27:36.005Z,20.00
2024-01-11T08:30:05.945Z,26.20
2024-01-11T08:32:40.325Z,19.37
2024-01-11T08:35:11.184Z,19.17
2024-01-11T08:37:40.743Z,18.20
2024-01-11T08:40:10.733Z,17.83
2024-01-11T08:42:39.117Z,23.10
2024-01-11T08:45:08.673Z,20.53
2024-01-11T08:47:39.652Z,26.10
2024-01-11T08:50:08.878Z,20.53
2024-01-11T08:52:36.830Z,25.40
2024-01-11T08:55:07.087Z,24.83
2024-01-11T08:57:36.748Z,21.83
2024-01-11T09:00:07.365Z,20.10
2024-01-11T09:02:36.451Z,24.80
2024-01-11T09:05:06.212Z,23.83
2024-01-11T09:07:37.147Z,26.67
2024-01-11T09:10:10.172Z,28.53
2024-01-11T09:12:38.303Z,21.60
2024-01-11T09:15:06.767Z,27.63
2024-01-11T09:17:34.792Z,28.47
2024-01-11T09:20:02.849Z,27.47
2024-01-11T09:22:30.831Z,24.57
2024-01-11T09:24:59.132Z,30.27
2024-01-11T09:27:28.551Z,31.53
2024-01-11T09:29:57.576Z,30.83
2024-01-11T09:32:26.849Z,32.07
2024-01-11T09:34:54.873Z,36.97
2024-01-11T09:37:22.872Z,33.23
2024-01-11T09:39:50.657Z,26.23
2024-01-11T09:42:20.707Z,31.00
2024-01-11T09:44:50.110Z,33.73
2024-01-11T09:47:19.466Z,31.50
2024-01-11T09:49:48.805Z,27.33
2024-01-11T09:52:18.742Z,29.83
2024-01-11T09:54:46.655Z,27.43
2024-01-11T09:57:17.998Z,23.07
2024-01-11T09:59:46.409Z,25.77
2024-01-11T10:02:16.263Z,26.70
2024-01-11T10:04:44.989Z,27.70
2024-01-11T10:07:13.271Z,24.73
2024-01-11T10:09:41.370Z,24.80
2024-01-11T10:12:11.054Z,24.97
2024-01-11T10:14:39.003Z,23.70
2024-01-11T10:17:06.993Z,24.10
2024-01-11T10:19:36.725Z,21.53
2024-01-11T10:22:06.045Z,21.37
2024-01-11T10:24:34.088Z,20.43
2024-01-11T10:27:05.315Z,17.80
2024-01-11T10:29:34.166Z,18.67
2024-01-11T10:32:02.111Z,17.13
2024-01-11T10:34:29.965Z,20.17
2024-01-11T10:37:02.420Z,21.53
2024-01-11T10:39:32.752Z,23.03
2024-01-11T10:42:07.700Z,18.00
2024-01-11T10:44:37.121Z,20.93
2024-01-11T10:47:08.646Z,17.23
2024-01-11T10:49:41.906Z,17.07
2024-01-11T10:52:14.772Z,15.57
2024-01-11T10:54:44.446Z,16.23
2024-01-11T10:57:14.715Z,16.23
2024-01-11T10:59:44.664Z,15.33
2024-01-11T11:02:15.988Z,15.77
2024-01-11T11:04:45.696Z,14.60
2024-01-11T11:07:17.008Z,14.37
2024-01-11T11:09:46.863Z,14.47
2024-01-11T11:12:16.239Z,12.43
2024-01-11T11:14:45.462Z,14.23
2024-01-11T11:17:13.584Z,14.70
2024-01-11T11:19:41.580Z,15.67
2024-01-11T11:22:09.435Z,14.77
2024-01-11T11:24:38.770Z,14.50
2024-01-11T11:27:08.411Z,14.87
2024-01-11T11:29:36.915Z,13.83
2024-01-11T11:34:43.676Z,13.30
2024-01-11T11:37:11.916Z,15.97
2024-01-11T11:39:43.889Z,13.53
2024-01-11T11:42:12.128Z,17.57
2024-01-11T11:44:50.231Z,15.73
2024-01-11T11:47:22.738Z,16.67
2024-01-11T11:50:10.707Z,13.70
2024-01-11T11:52:40.582Z,16.57
2024-01-11T11:55:10.712Z,16.40
2024-01-11T11:57:38.763Z,13.50
2024-01-11T12:00:08.156Z,17.47
2024-01-11T12:02:42.616Z,16.77
2024-01-11T12:05:10.766Z,16.90
2024-01-11T12:07:38.729Z,14.97
2024-01-11T12:10:07.722Z,14.50
2024-01-11T12:12:38.032Z,16.00
2024-01-11T12:15:07.028Z,16.00
2024-01-11T12:17:34.969Z,16.30
2024-01-11T12:20:02.946Z,16.03
2024-01-11T12:22:30.867Z,15.93
2024-01-11T12:24:58.811Z,15.17
2024-01-11T12:27:27.856Z,17.93
2024-01-11T12:29:59.715Z,14.77
2024-01-11T12:32:29.065Z,14.90
2024-01-11T12:34:57.429Z,15.37
2024-01-11T12:37:25.833Z,18.53
2024-01-11T12:39:59.914Z,16.37
2024-01-11T12:42:28.126Z,18.10
2024-01-11T12:44:59.378Z,15.67
2024-01-11T12:47:28.011Z,14.97
2024-01-11T12:49:56.266Z,16.40
2024-01-11T12:52:25.314Z,15.13
2024-01-11T12:54:54.388Z,15.17
2024-01-11T12:57:23.880Z,14.93
2024-01-11T12:59:51.868Z,16.77
2024-01-11T13:02:22.096Z,21.10
2024-01-11T13:04:52.376Z,20.10
2024-01-11T13:07:24.294Z,20.97
2024-01-11T13:09:52.214Z,21.50
2024-01-11T13:12:22.138Z,25.97
2024-01-11T13:14:52.096Z,23.73
2024-01-11T13:17:21.523Z,24.13
2024-01-11T13:19:49.730Z,24.90
2024-01-11T13:22:17.592Z,18.20
2024-01-11T13:24:45.791Z,24.20
2024-01-11T13:27:13.642Z,20.97
2024-01-11T13:29:41.511Z,22.53
2024-01-11T13:32:11.937Z,28.10
2024-01-11T13:34:41.232Z,20.70
2024-01-11T13:37:09.148Z,26.30
2024-01-11T13:39:37.318Z,28.77
2024-01-11T13:42:10.330Z,22.27
2024-01-11T13:44:38.594Z,29.60
2024-01-11T13:47:06.828Z,23.27
2024-01-11T13:49:35.819Z,21.10
2024-01-11T13:52:05.963Z,23.60
2024-01-11T13:54:33.867Z,25.83
2024-01-11T13:57:03.831Z,26.20
2024-01-11T13:59:31.772Z,27.37
2024-01-11T14:02:00.080Z,24.90
2024-01-11T14:04:27.958Z,24.30
2024-01-11T14:06:55.951Z,24.00
2024-01-11T14:09:25.261Z,27.63
2024-01-11T14:11:53.534Z,29.53
2024-01-11T14:14:21.992Z,26.90
2024-01-11T14:16:50.258Z,20.63
2024-01-11T14:19:18.255Z,22.00
2024-01-11T14:21:46.261Z,25.23
2024-01-11T14:24:14.670Z,23.90
2024-01-11T14:26:44.690Z,23.80
2024-01-11T14:29:13.190Z,20.13
2024-01-11T14:31:41.200Z,19.50
2024-01-11T14:34:09.374Z,23.10
2024-01-11T14:36:37.885Z,20.77
2024-01-11T14:39:06.739Z,20.97
2024-01-11T14:41:34.914Z,16.93
2024-01-11T14:44:04.960Z,18.50
2024-01-11T14:46:32.862Z,17.10
2024-01-11T14:49:01.866Z,16.53
2024-01-11T14:51:32.183Z,20.23
2024-01-11T14:54:00.309Z,17.13
2024-01-11T14:56:28.421Z,15.23
2024-01-11T14:58:56.232Z,15.70
2024-01-11T15:01:25.574Z,18.03
2024-01-11T15:03:53.607Z,18.07
2024-01-11T15:06:22.212Z,17.70
2024-01-11T15:08:50.346Z,18.07
2024-01-11T15:11:18.602Z,15.87
2024-01-11T15:13:46.465Z,18.17
2024-01-11T15:16:14.422Z,16.23
2024-01-11T15:18:43.839Z,16.53
2024-01-11T15:21:11.794Z,14.70
2024-01-11T15:23:40.224Z,14.03
2024-01-11T15:26:08.385Z,14.83
2024-01-11T15:28:36.598Z,14.60
2024-01-11T15:31:04.664Z,12.83
2024-01-11T15:33:32.620Z,15.07
2024-01-11T15:36:02.655Z,14.10
2024-01-11T15:38:30.631Z,14.53
2024-01-11T15:40:58.624Z,15.57
2024-01-11T15:43:26.499Z,13.70
2024-01-11T15:45:54.394Z,12.73
2024-01-11T15:48:22.334Z,13.87
2024-01-11T15:50:50.690Z,13.90
2024-01-11T15:53:20.008Z,15.10
2024-01-11T15:55:47.930Z,13.40
2024-01-11T15:58:15.790Z,14.70
2024-01-11T16:00:44.799Z,15.03
2024-01-11T16:03:13.027Z,16.10
2024-01-11T16:05:41.263Z,14.00
2024-01-11T16:08:09.210Z,14.67
2024-01-11T16:10:38.432Z,13.73
2024-01-11T16:13:06.410Z,13.30
2024-01-11T16:15:34.818Z,15.23
2024-01-11T16:18:02.938Z,15.43
2024-01-11T16:20:30.946Z,14.43
2024-01-11T16:22:58.823Z,16.63
2024-01-11T16:25:26.662Z,28.83
2024-01-11T16:27:55.855Z,18.90
2024-01-11T16:30:24.288Z,19.90
2024-01-11T16:32:52.229Z,26.27
2024-01-11T16:35:21.526Z,20.50
2024-01-11T16:37:49.394Z,18.47
2024-01-11T16:40:17.635Z,16.90
2024-01-11T16:42:45.693Z,15.03
2024-01-11T16:45:15.156Z,14.57
2024-01-11T16:47:43.083Z,16.57
2024-01-11T16:50:11.517Z,15.40
2024-01-11T16:52:39.874Z,12.47
2024-01-11T16:55:09.122Z,11.13
2024-01-11T16:57:37.231Z,14.17
2024-01-11T17:00:08.297Z,13.57
2024-01-11T17:02:37.623Z,14.00
2024-01-11T17:05:06.227Z,13.80
2024-01-11T17:07:34.492Z,17.07
2024-01-11T17:10:03.253Z,17.27
2024-01-11T17:12:31.170Z,18.07
2024-01-11T17:15:00.253Z,15.20
2024-01-11T17:17:28.529Z,16.47
2024-01-11T17:19:57.818Z,16.33
2024-01-11T17:22:25.728Z,19.10
2024-01-11T17:24:53.586Z,16.93
2024-01-11T17:27:21.442Z,15.83
2024-01-11T17:29:49.684Z,17.10
2024-01-11T17:32:17.753Z,15.03
2024-01-11T17:34:52.732Z,17.03
2024-01-11T17:37:22.557Z,19.93
2024-01-11T17:39:51.322Z,18.87
2024-01-11T17:42:20.023Z,16.60
2024-01-11T17:44:48.108Z,20.57
2024-01-11T17:47:16.121Z,19.40
2024-01-11T17:49:44.225Z,17.17
2024-01-11T17:52:12.166Z,17.17
2024-01-11T17:54:41.783Z,17.63
2024-01-11T17:57:09.733Z,22.23
2024-01-11T17:59:37.665Z,18.07
2024-01-11T18:02:05.737Z,20.60
2024-01-11T18:04:33.611Z,21.77
2024-01-11T18:07:01.814Z,18.87
2024-01-11T18:09:29.763Z,15.77
2024-01-11T18:11:59.031Z,20.47
2024-01-11T18:14:27.071Z,15.17
2024-01-11T18:16:55.089Z,19.57
2024-01-11T18:19:23.091Z,17.43
2024-01-11T18:21:51.109Z,16.17
2024-01-11T18:24:19.088Z,14.97
2024-01-11T18:26:47.072Z,18.77
2024-01-11T18:29:15.490Z,17.97
2024-01-11T18:31:43.421Z,16.77
2024-01-11T18:34:11.439Z,21.63
2024-01-11T18:36:47.218Z,24.33
2024-01-11T18:39:16.819Z,21.73
2024-01-11T18:41:44.740Z,21.77
2024-01-11T18:44:13.715Z,20.87
2024-01-11T18:46:44.170Z,21.33
2024-01-11T18:49:12.149Z,21.10
2024-01-11T18:51:44.212Z,22.70
2024-01-11T18:54:12.047Z,20.00
2024-01-11T18:56:40.169Z,19.90
2024-01-11T18:59:08.337Z,17.80
2024-01-11T19:01:36.270Z,20.10
2024-01-11T19:04:06.212Z,21.67
2024-01-11T19:06:34.200Z,26.63
2024-01-11T19:09:02.539Z,25.23
2024-01-11T19:11:30.882Z,21.30
2024-01-11T19:13:59.142Z,21.67
2024-01-11T19:16:26.990Z,23.57
2024-01-11T19:18:55.158Z,24.87
2024-01-11T19:21:24.825Z,26.37
2024-01-11T19:23:53.058Z,26.73
2024-01-11T19:26:21.067Z,25.90
2024-01-11T19:28:49.572Z,22.40
2024-01-11T19:31:18.159Z,24.53
2024-01-11T19:33:46.261Z,26.37
2024-01-11T19:36:14.575Z,26.00
2024-01-11T19:38:43.847Z,25.17
2024-01-11T19:41:11.932Z,24.90
2024-01-11T19:43:46.903Z,24.03
2024-01-11T19:46:18.527Z,25.17
2024-01-11T19:48:46.794Z,22.57
2024-01-11T19:51:14.834Z,22.33
2024-01-11T19:53:44.313Z,32.70
2024-01-11T19:56:19.328Z,26.33
2024-01-11T19:58:47.613Z,27.17
2024-01-11T20:01:16.289Z,27.10
2024-01-11T20:03:44.389Z,28.17
2024-01-11T20:06:13.574Z,30.03
2024-01-11T20:08:41.817Z,27.47
2024-01-11T20:11:11.306Z,32.97
2024-01-11T20:13:39.396Z,29.83
2024-01-11T20:16:09.296Z,24.80
2024-01-11T20:18:37.827Z,31.73
2024-01-11T20:21:11.780Z,27.63
2024-01-11T20:23:43.856Z,28.10
2024-01-11T20:26:14.959Z,29.73
2024-01-11T20:28:43.187Z,29.10
2024-01-11T20:31:11.574Z,28.17
2024-01-11T20:33:39.992Z,26.63
2024-01-11T20:36:08.973Z,28.40
2024-01-11T20:38:37.603Z,28.33
2024-01-11T20:41:06.163Z,28.13
2024-01-11T20:43:35.499Z,32.77
2024-01-11T20:46:04.282Z,30.13
2024-01-11T20:48:32.391Z,29.67
2024-01-11T20:51:00.577Z,33.70
2024-01-11T20:53:28.477Z,30.67
2024-01-11T20:55:57.736Z,33.27
2024-01-11T20:58:25.643Z,28.63
2024-01-11T21:00:54.964Z,27.63
2024-01-11T21:03:22.946Z,22.30
2024-01-11T21:05:54.965Z,35.60
2024-01-11T21:08:23.144Z,26.80
2024-01-11T21:10:51.125Z,27.27
2024-01-11T21:13:19.118Z,31.43
2024-01-11T21:15:46.966Z,25.90
2024-01-11T21:18:16.601Z,24.90
2024-01-11T21:20:45.445Z,28.20
2024-01-11T21:23:14.531Z,30.77
2024-01-11T21:25:42.364Z,26.27
2024-01-11T21:28:15.077Z,27.33
2024-01-11T21:30:43.150Z,24.70
2024-01-11T21:33:11.273Z,24.67
2024-01-11T21:35:40.544Z,22.00
2024-01-11T21:38:09.450Z,22.83
2024-01-11T21:40:39.189Z,27.50
2024-01-11T21:43:08.694Z,25.87
2024-01-11T21:45:37.730Z,25.37
2024-01-11T21:48:06.427Z,25.47
2024-01-11T21:50:35.822Z,22.23
2024-01-11T21:53:05.404Z,21.07
2024-01-11T21:55:33.925Z,21.90
2024-01-11T21:58:01.843Z,27.47
2024-01-11T22:00:29.696Z,22.97
2024-01-11T22:02:57.707Z,22.50
2024-01-11T22:05:26.101Z,19.93
2024-01-11T22:07:54.420Z,20.70
2024-01-11T22:10:24.962Z,21.03
2024-01-11T22:12:53.442Z,21.33
2024-01-11T22:15:21.861Z,21.67
2024-01-11T22:17:50.349Z,21.47
2024-01-11T22:20:18.814Z,25.60
2024-01-11T22:22:46.041Z,20.47
2024-01-11T22:25:13.899Z,22.70
2024-01-11T22:27:43.093Z,23.83
2024-01-11T22:30:14.772Z,26.93
2024-01-11T22:32:42.901Z,22.67
2024-01-11T22:35:10.867Z,24.23
2024-01-11T22:37:39.364Z,20.53
2024-01-11T22:40:08.703Z,21.47
2024-01-11T22:42:36.945Z,19.87
2024-01-11T22:45:06.988Z,19.20
2024-01-11T22:47:34.980Z,20.00
2024-01-11T22:50:02.914Z,19.53
2024-01-11T22:52:30.794Z,18.73
2024-01-11T22:54:58.836Z,16.87
2024-01-11T22:57:26.747Z,18.37
2024-01-11T22:59:55.467Z,16.77
2024-01-11T23:02:24.698Z,21.60
2024-01-11T23:04:52.565Z,18.23
2024-01-11T23:07:20.370Z,16.70
2024-01-11T23:09:48.560Z,17.83
2024-01-11T23:12:16.493Z,17.93
2024-01-11T23:14:44.886Z,19.87
2024-01-11T23:17:12.789Z,15.90
2024-01-11T23:19:42.663Z,14.93
2024-01-11T23:22:10.495Z,15.90
2024-01-11T23:24:38.320Z,21.10
2024-01-11T23:27:07.129Z,22.37
2024-01-11T23:29:34.950Z,23.00
2024-01-11T23:32:02.805Z,19.13
2024-01-11T23:34:30.656Z,18.57
2024-01-11T23:37:00.145Z,15.80
2024-01-11T23:39:28.015Z,18.73
2024-01-11T23:41:56.035Z,14.97
2024-01-11T23:44:23.962Z,18.20
2024-01-11T23:46:51.829Z,18.70
2024-01-11T23:49:19.807Z,16.37
2024-01-11T23:51:47.799Z,17.77
2024-01-11T23:54:17.025Z,16.07
2024-01-11T23:56:44.973Z,18.30
2024-01-11T23:59:13.908Z,22.77
